Wetterdaten: Woche 14.02.05 - 20.02.05 (KW7)
Datum Zeit Temperatur Luftfeuchte Luftdruck Niederschlag Windrichtung Taupunkt Windchill Wind
14.02.2005 00:00 -1,2 C 81 % 1001 hPa 0,0 l/m W-SW -4,1 C -7,5 C 15,1 km/h (3 Bft)
14.02.2005 01:00 -1,4 C 79 % 1001 hPa 0,0 l/m SW -4,6 C -6,2 C 12,7 km/h (3 Bft)
14.02.2005 02:00 -1,7 C 81 % 1001 hPa 0,0 l/m SW -4,5 C -7,0 C 13,7 km/h (3 Bft)
14.02.2005 03:00 -1,9 C 90 % 1001 hPa 0,0 l/m SW -3,3 C -7,5 C 14,7 km/h (3 Bft)
14.02.2005 04:00 -1,8 C 91 % 1001 hPa 0,0 l/m W-SW -3,1 C -8,8 C 17,0 km/h (3 Bft)
14.02.2005 05:00 -1,8 C 91 % 1002 hPa 0,0 l/m W -3,1 C -9,3 C 17,8 km/h (3 Bft)
14.02.2005 06:00 -1,9 C 91 % 1003 hPa 0,0 l/m W -3,2 C -5,7 C 11,9 km/h (2 Bft)
14.02.2005 07:00 -2,2 C 89 % 1004 hPa 0,0 l/m W-SW -3,7 C -4,6 C 9,7 km/h (2 Bft)
14.02.2005 08:00 -1,9 C 86 % 1005 hPa 0,0 l/m SW -3,9 C -6,0 C 12,6 km/h (3 Bft)
14.02.2005 09:00 -1,3 C 83 % 1006 hPa 0,0 l/m W-SW -3,8 C -6,3 C 13,4 km/h (3 Bft)
14.02.2005 10:00 -0,2 C 79 % 1006 hPa 0,0 l/m W-SW -3,3 C -5,6 C 14,5 km/h (3 Bft)
14.02.2005 11:00 0,3 C 79 % 1007 hPa 0,0 l/m W-SW -2,9 C -6,6 C 18,0 km/h (3 Bft)
14.02.2005 12:00 0,7 C 79 % 1007 hPa 2,0 l/m W-SW -2,6 C -5,0 C 14,6 km/h (3 Bft)
14.02.2005 13:00 1,6 C 71 % 1006 hPa 0,0 l/m W -3,2 C -2,8 C 13,0 km/h (3 Bft)
14.02.2005 14:00 1,0 C 74 % 1006 hPa 0,0 l/m W -3,1 C -3,4 C 13,3 km/h (3 Bft)
14.02.2005 15:00 1,4 C 76 % 1006 hPa 0,0 l/m S-SW -2,4 C -2,6 C 12,2 km/h (2 Bft)
14.02.2005 16:00 0,7 C 81 % 1006 hPa 0,0 l/m W-SW -2,2 C -1,6 C 9,9 km/h (2 Bft)
14.02.2005 17:00 0,0 C 79 % 1006 hPa 0,0 l/m W-SW -3,1 C -3,1 C 10,9 km/h (2 Bft)
14.02.2005 18:00 -0,8 C 79 % 1005 hPa 0,0 l/m W-SW -3,9 C -3,3 C 10,4 km/h (2 Bft)
14.02.2005 19:00 -1,0 C 80 % 1005 hPa 0,0 l/m SW -4,0 C -6,0 C 13,4 km/h (3 Bft)
14.02.2005 20:00 -0,9 C 82 % 1005 hPa 0,0 l/m S-SW -3,5 C -6,7 C 15,1 km/h (3 Bft)
14.02.2005 21:00 -1,0 C 89 % 1004 hPa 0,0 l/m SW -2,5 C -8,1 C 17,0 km/h (3 Bft)
14.02.2005 22:00 -1,1 C 93 % 1004 hPa 0,0 l/m S-SW -2,0 C -7,5 C 15,7 km/h (3 Bft)
14.02.2005 23:00 -1,1 C 92 % 1003 hPa 0,0 l/m S-SW -2,2 C -7,8 C 16,1 km/h (3 Bft)
15.02.2005 00:00 -1,1 C 92 % 1003 hPa 0,0 l/m W-SW -2,2 C -6,2 C 14,2 km/h (3 Bft)
15.02.2005 01:00 -1,3 C 92 % 1003 hPa 0,0 l/m W-SW -2,4 C -5,0 C 11,3 km/h (2 Bft)
15.02.2005 02:00 -1,7 C 92 % 1003 hPa 0,0 l/m S-SW -2,8 C -3,4 C 8,4 km/h (2 Bft)
15.02.2005 03:00 -1,6 C 93 % 1003 hPa 0,0 l/m SW -2,7 C -3,6 C 9,0 km/h (2 Bft)
15.02.2005 04:00 -1,6 C 93 % 1003 hPa 0,0 l/m W -2,6 C -4,6 C 10,1 km/h (2 Bft)
15.02.2005 05:00 -1,8 C 96 % 1004 hPa 0,0 l/m N -2,4 C -5,5 C 10,9 km/h (2 Bft)
15.02.2005 06:00 -2,5 C 94 % 1004 hPa 0,0 l/m N-NO -3,4 C -5,1 C 10,0 km/h (2 Bft)
15.02.2005 07:00 -3,0 C 86 % 1004 hPa 0,0 l/m N-NO -5,0 C -7,5 C 12,4 km/h (3 Bft)
15.02.2005 08:00 -2,8 C 81 % 1005 hPa 0,0 l/m N -5,6 C -7,3 C 12,3 km/h (3 Bft)
15.02.2005 09:00 -2,6 C 84 % 1006 hPa 0,0 l/m N -4,9 C -5,9 C 10,2 km/h (2 Bft)
15.02.2005 10:00 -2,8 C 84 % 1007 hPa 0,0 l/m N -5,2 C -7,0 C 12,1 km/h (2 Bft)
15.02.2005 11:00 -2,3 C 78 % 1007 hPa 0,0 l/m N -5,7 C -9,0 C 16,3 km/h (3 Bft)
15.02.2005 12:00 -1,1 C 65 % 1007 hPa 0,0 l/m N-NW -6,8 C -7,3 C 15,9 km/h (3 Bft)
15.02.2005 13:00 -1,8 C 70 % 1008 hPa 0,0 l/m N-NW -6,6 C -7,3 C 13,9 km/h (3 Bft)
15.02.2005 14:00 -2,0 C 75 % 1008 hPa 0,0 l/m NW -5,8 C -4,6 C 9,7 km/h (2 Bft)
15.02.2005 15:00 -1,8 C 72 % 1008 hPa 0,0 l/m NW -6,2 C -3,6 C 8,7 km/h (2 Bft)
15.02.2005 16:00 -2,2 C 76 % 1008 hPa 0,0 l/m W -5,7 C -2,5 C 3,5 km/h (1 Bft)
15.02.2005 17:00 -2,6 C 81 % 1009 hPa 0,0 l/m W -5,5 C -2,7 C 0,8 km/h (0 Bft)
15.02.2005 18:00 -3,0 C 87 % 1009 hPa 0,0 l/m S -4,8 C -3,2 C 2,5 km/h (1 Bft)
15.02.2005 19:00 -3,3 C 92 % 1010 hPa 0,0 l/m S -4,4 C -3,6 C 3,5 km/h (1 Bft)
15.02.2005 20:00 -3,4 C 93 % 1010 hPa 0,0 l/m S -4,4 C -4,5 C 5,7 km/h (1 Bft)
15.02.2005 21:00 -3,5 C 93 % 1011 hPa 0,0 l/m N -4,5 C -3,5 C 0,6 km/h (0 Bft)
15.02.2005 22:00 -3,5 C 94 % 1012 hPa 0,0 l/m N-NW -4,3 C -4,1 C 3,9 km/h (1 Bft)
15.02.2005 23:00 -3,3 C 95 % 1012 hPa 0,0 l/m N -4,0 C -5,1 C 8,6 km/h (2 Bft)
16.02.2005 00:00 -3,1 C 96 % 1012 hPa 0,0 l/m N -3,6 C -6,1 C 10,4 km/h (2 Bft)
16.02.2005 01:00 -2,9 C 95 % 1012 hPa 0,0 l/m N -3,6 C -10,1 C 16,7 km/h (3 Bft)
16.02.2005 02:00 -2,8 C 90 % 1013 hPa 0,0 l/m N -4,2 C -10,0 C 16,4 km/h (3 Bft)
16.02.2005 03:00 -3,0 C 91 % 1013 hPa 0,0 l/m N -4,3 C -8,3 C 13,5 km/h (3 Bft)
16.02.2005 04:00 -3,1 C 92 % 1013 hPa 0,0 l/m N -4,2 C -7,9 C 12,5 km/h (3 Bft)
16.02.2005 05:00 -3,3 C 92 % 1013 hPa 0,0 l/m N -4,5 C -9,5 C 14,8 km/h (3 Bft)
16.02.2005 06:00 -3,4 C 89 % 1013 hPa 0,0 l/m N -4,9 C -9,5 C 14,7 km/h (3 Bft)
16.02.2005 07:00 -3,5 C 87 % 1014 hPa 0,0 l/m N-NW -5,4 C -8,1 C 11,9 km/h (2 Bft)
16.02.2005 08:00 -3,5 C 90 % 1014 hPa 0,0 l/m N -4,8 C -6,6 C 10,6 km/h (2 Bft)
16.02.2005 09:00 -3,4 C 88 % 1015 hPa 0,0 l/m N-NW -5,1 C -8,8 C 13,5 km/h (3 Bft)
16.02.2005 10:00 -2,6 C 82 % 1015 hPa 0,0 l/m N -5,2 C -10,0 C 16,6 km/h (3 Bft)
16.02.2005 11:00 -2,4 C 80 % 1015 hPa 0,0 l/m N-NW -5,3 C -9,6 C 16,5 km/h (3 Bft)
16.02.2005 12:00 -2,1 C 81 % 1015 hPa 0,0 l/m N -5,0 C -8,4 C 15,6 km/h (3 Bft)
16.02.2005 13:00 -2,4 C 83 % 1015 hPa 0,0 l/m N-NW -4,9 C -7,0 C 12,9 km/h (3 Bft)
16.02.2005 14:00 -2,4 C 85 % 1015 hPa 0,0 l/m NW -4,5 C -6,8 C 12,3 km/h (3 Bft)
16.02.2005 15:00 -2,5 C 85 % 1016 hPa 0,0 l/m N -4,6 C -7,2 C 13,6 km/h (3 Bft)
16.02.2005 16:00 -3,0 C 89 % 1016 hPa 0,0 l/m N-NW -4,7 C -8,3 C 12,6 km/h (3 Bft)
16.02.2005 17:00 -3,4 C 91 % 1016 hPa 0,0 l/m NW -4,7 C -8,1 C 12,7 km/h (3 Bft)
16.02.2005 18:00 -3,6 C 93 % 1017 hPa 0,0 l/m N-NW -4,6 C -9,0 C 14,3 km/h (3 Bft)
16.02.2005 19:00 -3,8 C 93 % 1017 hPa 0,0 l/m NW -4,7 C -8,7 C 12,5 km/h (3 Bft)
16.02.2005 20:00 -3,9 C 93 % 1017 hPa 0,0 l/m N -4,9 C -7,6 C 11,0 km/h (2 Bft)
16.02.2005 21:00 -4,2 C 93 % 1018 hPa 0,0 l/m N -5,1 C -5,2 C 5,7 km/h (1 Bft)
16.02.2005 22:00 -4,2 C 93 % 1018 hPa 0,0 l/m N -5,2 C -5,1 C 6,4 km/h (2 Bft)
16.02.2005 23:00 -4,2 C 92 % 1018 hPa 0,0 l/m N -5,3 C -6,3 C 9,0 km/h (2 Bft)
17.02.2005 00:00 -4,3 C 92 % 1019 hPa 0,0 l/m N -5,4 C -4,5 C 4,1 km/h (1 Bft)
17.02.2005 01:00 -4,3 C 92 % 1019 hPa 0,0 l/m N -5,4 C -4,3 C 0,0 km/h (0 Bft)
17.02.2005 02:00 -4,3 C 92 % 1019 hPa 0,0 l/m N -5,4 C -4,3 C 0,0 km/h (0 Bft)
17.02.2005 03:00 -4,2 C 92 % 1019 hPa 0,0 l/m N -5,3 C -4,2 C 0,0 km/h (0 Bft)
17.02.2005 04:00 -4,3 C 93 % 1019 hPa 0,0 l/m N -5,2 C -4,3 C 0,0 km/h (0 Bft)
17.02.2005 05:00 -4,3 C 93 % 1020 hPa 0,0 l/m N -5,3 C -4,3 C 0,0 km/h (0 Bft)
17.02.2005 06:00 -4,4 C 93 % 1020 hPa 0,0 l/m NW -5,4 C -4,4 C 0,4 km/h (0 Bft)
17.02.2005 07:00 -4,5 C 93 % 1021 hPa 0,0 l/m NW -5,4 C -4,5 C 0,9 km/h (0 Bft)
17.02.2005 08:00 -4,3 C 94 % 1021 hPa 0,0 l/m N -5,1 C -4,3 C 0,0 km/h (0 Bft)
17.02.2005 09:00 -3,2 C 93 % 1021 hPa 0,0 l/m O-NO -4,2 C -3,3 C 1,0 km/h (0 Bft)
17.02.2005 10:00 -2,0 C 84 % 1021 hPa 0,0 l/m N-NO -4,4 C -2,0 C 2,3 km/h (1 Bft)
17.02.2005 11:00 -1,6 C 79 % 1021 hPa 0,0 l/m N -4,8 C -2,1 C 4,3 km/h (1 Bft)
17.02.2005 12:00 -1,0 C 73 % 1021 hPa 0,0 l/m N -5,3 C -2,7 C 8,4 km/h (2 Bft)
17.02.2005 13:00 -0,7 C 67 % 1021 hPa 0,0 l/m N -6,1 C -2,3 C 8,4 km/h (2 Bft)
17.02.2005 14:00 -0,3 C 64 % 1021 hPa 0,0 l/m N-NO -6,2 C -1,6 C 7,2 km/h (2 Bft)
17.02.2005 15:00 -0,8 C 70 % 1021 hPa 0,0 l/m N -5,5 C -3,5 C 9,2 km/h (2 Bft)
17.02.2005 16:00 -1,4 C 77 % 1021 hPa 0,0 l/m N -4,9 C -2,6 C 7,3 km/h (2 Bft)
17.02.2005 17:00 -1,9 C 81 % 1021 hPa 0,0 l/m N -4,7 C -3,2 C 8,3 km/h (2 Bft)
17.02.2005 18:00 -2,5 C 85 % 1022 hPa 0,0 l/m N -4,6 C -2,8 C 2,9 km/h (1 Bft)
17.02.2005 19:00 -2,8 C 88 % 1022 hPa 0,0 l/m N -4,6 C -2,8 C 0,0 km/h (0 Bft)
17.02.2005 20:00 -3,0 C 90 % 1022 hPa 0,0 l/m N -4,4 C -3,0 C 0,0 km/h (0 Bft)
17.02.2005 21:00 -3,1 C 91 % 1022 hPa 0,0 l/m N -4,3 C -3,1 C 0,0 km/h (0 Bft)
17.02.2005 22:00 -3,2 C 92 % 1022 hPa 0,0 l/m N-NW -4,3 C -3,2 C 0,5 km/h (0 Bft)
17.02.2005 23:00 -3,3 C 93 % 1022 hPa 0,0 l/m N -4,2 C -3,6 C 2,4 km/h (1 Bft)
18.02.2005 00:00 -3,3 C 93 % 1022 hPa 0,0 l/m N -4,3 C -3,5 C 3,3 km/h (1 Bft)
18.02.2005 01:00 -3,4 C 93 % 1022 hPa 0,0 l/m N -4,3 C -3,7 C 1,9 km/h (1 Bft)
18.02.2005 02:00 -3,5 C 93 % 1021 hPa 0,0 l/m N -4,4 C -4,2 C 4,6 km/h (1 Bft)
18.02.2005 03:00 -3,9 C 93 % 1021 hPa 0,0 l/m N -4,9 C -4,0 C 1,8 km/h (1 Bft)
18.02.2005 04:00 -4,1 C 93 % 1021 hPa 0,0 l/m N -5,0 C -4,1 C 0,0 km/h (0 Bft)
18.02.2005 05:00 -3,8 C 94 % 1021 hPa 0,0 l/m N -4,7 C -3,8 C 0,0 km/h (0 Bft)
18.02.2005 06:00 -3,9 C 94 % 1021 hPa 0,0 l/m N -4,7 C -4,2 C 2,6 km/h (1 Bft)
18.02.2005 07:00 -3,8 C 94 % 1021 hPa 0,0 l/m N -4,6 C -4,9 C 7,7 km/h (2 Bft)
18.02.2005 08:00 -3,7 C 92 % 1021 hPa 0,0 l/m N -4,7 C -3,7 C 0,8 km/h (0 Bft)
18.02.2005 09:00 -3,2 C 92 % 1021 hPa 0,0 l/m N -4,4 C -4,5 C 5,5 km/h (1 Bft)
18.02.2005 10:00 -2,1 C 86 % 1021 hPa 0,0 l/m N -4,1 C -4,8 C 9,5 km/h (2 Bft)
18.02.2005 11:00 -1,2 C 75 % 1021 hPa 0,0 l/m N-NO -5,1 C -4,6 C 11,1 km/h (2 Bft)
18.02.2005 12:00 -0,8 C 69 % 1020 hPa 0,0 l/m N-NO -5,8 C -4,1 C 10,9 km/h (2 Bft)
18.02.2005 13:00 -0,2 C 69 % 1020 hPa 0,0 l/m N -5,3 C -1,8 C 9,2 km/h (2 Bft)
18.02.2005 14:00 -0,3 C 64 % 1019 hPa 0,0 l/m N -6,4 C -1,2 C 4,4 km/h (1 Bft)
18.02.2005 15:00 -0,5 C 62 % 1019 hPa 0,0 l/m W -6,9 C -0,5 C 0,3 km/h (0 Bft)
18.02.2005 16:00 -1,1 C 63 % 1019 hPa 0,0 l/m W-SW -7,2 C -1,1 C 0,4 km/h (0 Bft)
18.02.2005 17:00 -1,9 C 68 % 1018 hPa 0,0 l/m W-SW -7,0 C -2,3 C 3,5 km/h (1 Bft)
18.02.2005 18:00 -2,6 C 76 % 1018 hPa 0,0 l/m S-SW -6,2 C -3,1 C 5,0 km/h (1 Bft)
18.02.2005 19:00 -2,9 C 81 % 1018 hPa 0,0 l/m SW -5,6 C -3,9 C 7,2 km/h (2 Bft)
18.02.2005 20:00 -3,3 C 84 % 1018 hPa 0,0 l/m S-SW -5,6 C -4,4 C 7,3 km/h (2 Bft)
18.02.2005 21:00 -3,7 C 86 % 1017 hPa 0,0 l/m SW -5,7 C -4,9 C 7,9 km/h (2 Bft)
18.02.2005 22:00 -3,7 C 84 % 1017 hPa 0,0 l/m S-SW -6,0 C -6,4 C 9,9 km/h (2 Bft)
18.02.2005 23:00 -3,4 C 82 % 1017 hPa 0,0 l/m S-SW -6,0 C -8,1 C 11,9 km/h (2 Bft)
19.02.2005 00:00 -3,8 C 82 % 1016 hPa 0,0 l/m S-SW -6,4 C -7,7 C 11,1 km/h (2 Bft)
19.02.2005 01:00 -4,5 C 83 % 1015 hPa 0,0 l/m S-SW -6,9 C -6,7 C 9,5 km/h (2 Bft)
19.02.2005 02:00 -4,6 C 82 % 1015 hPa 0,0 l/m S-SW -7,2 C -8,0 C 10,3 km/h (2 Bft)
19.02.2005 03:00 -4,7 C 83 % 1014 hPa 0,0 l/m S -7,1 C -7,4 C 10,3 km/h (2 Bft)
19.02.2005 04:00 -4,3 C 82 % 1013 hPa 0,0 l/m S -6,9 C -8,9 C 12,1 km/h (2 Bft)
19.02.2005 05:00 -4,1 C 78 % 1012 hPa 0,0 l/m S-SW -7,3 C -8,7 C 12,4 km/h (3 Bft)
19.02.2005 06:00 -3,9 C 76 % 1012 hPa 0,0 l/m S-SW -7,5 C -9,4 C 13,7 km/h (3 Bft)
19.02.2005 07:00 -4,1 C 81 % 1011 hPa 0,0 l/m S-SW -6,9 C -10,1 C 14,2 km/h (3 Bft)
19.02.2005 08:00 -4,0 C 87 % 1011 hPa 0,0 l/m S-SW -5,7 C -9,7 C 13,5 km/h (3 Bft)
19.02.2005 09:00 -3,1 C 83 % 1011 hPa 0,0 l/m S-SW -5,6 C -8,6 C 13,9 km/h (3 Bft)
19.02.2005 10:00 -2,4 C 78 % 1010 hPa 0,0 l/m S-SW -5,7 C -7,9 C 14,7 km/h (3 Bft)
19.02.2005 11:00 -1,6 C 78 % 1010 hPa 0,0 l/m S -4,9 C -6,9 C 13,5 km/h (3 Bft)
19.02.2005 12:00 -1,3 C 79 % 1009 hPa 0,0 l/m S -4,4 C -7,5 C 15,3 km/h (3 Bft)
19.02.2005 13:00 -1,4 C 81 % 1009 hPa 0,0 l/m S -4,1 C -6,9 C 14,3 km/h (3 Bft)
19.02.2005 14:00 -1,4 C 85 % 1008 hPa 0,0 l/m S -3,6 C -7,0 C 14,2 km/h (3 Bft)
19.02.2005 15:00 -1,3 C 87 % 1008 hPa 0,0 l/m S -3,2 C -6,0 C 12,3 km/h (3 Bft)
19.02.2005 16:00 -1,4 C 86 % 1008 hPa 0,0 l/m S-SW -3,4 C -4,8 C 10,9 km/h (2 Bft)
19.02.2005 17:00 -1,6 C 88 % 1008 hPa 1,0 l/m S-SW -3,3 C -2,7 C 7,3 km/h (2 Bft)
19.02.2005 18:00 -2,0 C 92 % 1009 hPa 0,0 l/m S -3,1 C -2,9 C 7,5 km/h (2 Bft)
19.02.2005 19:00 -2,2 C 94 % 1009 hPa 0,0 l/m S -3,1 C -2,9 C 4,3 km/h (1 Bft)
19.02.2005 20:00 -2,2 C 96 % 1009 hPa 0,0 l/m SW -2,8 C -3,3 C 6,4 km/h (2 Bft)
19.02.2005 21:00 -2,3 C 95 % 1009 hPa 0,0 l/m W-SW -3,0 C -2,7 C 2,7 km/h (1 Bft)
19.02.2005 22:00 -2,3 C 94 % 1009 hPa 0,0 l/m W-SW -3,2 C -3,3 C 7,7 km/h (2 Bft)
19.02.2005 23:00 -2,4 C 91 % 1009 hPa 0,0 l/m SW -3,6 C -3,2 C 7,2 km/h (2 Bft)
20.02.2005 00:00 -2,5 C 92 % 1009 hPa 0,0 l/m S-SW -3,5 C -3,4 C 7,4 km/h (2 Bft)
20.02.2005 01:00 -2,5 C 93 % 1009 hPa 0,0 l/m S-SW -3,5 C -3,4 C 7,2 km/h (2 Bft)
20.02.2005 02:00 -2,6 C 95 % 1008 hPa 0,0 l/m S-SW -3,3 C -4,2 C 8,4 km/h (2 Bft)
20.02.2005 03:00 -2,7 C 95 % 1008 hPa 0,0 l/m S-SW -3,4 C -4,2 C 7,7 km/h (2 Bft)
20.02.2005 04:00 -2,8 C 93 % 1008 hPa 0,0 l/m S-SW -3,7 C -4,3 C 8,1 km/h (2 Bft)
20.02.2005 05:00 -2,9 C 93 % 1008 hPa 0,0 l/m S-SW -3,9 C -4,6 C 8,3 km/h (2 Bft)
20.02.2005 06:00 -3,3 C 93 % 1008 hPa 0,0 l/m S -4,3 C -3,3 C 1,1 km/h (0 Bft)
20.02.2005 07:00 -3,7 C 93 % 1007 hPa 0,0 l/m S-SO -4,6 C -3,7 C 3,2 km/h (1 Bft)
20.02.2005 08:00 -3,4 C 97 % 1008 hPa 0,0 l/m SO -3,8 C -3,4 C 1,3 km/h (1 Bft)
20.02.2005 09:00 -2,4 C 97 % 1008 hPa 0,0 l/m S -2,8 C -3,3 C 4,3 km/h (1 Bft)
20.02.2005 10:00 -1,0 C 87 % 1008 hPa 0,0 l/m S -2,8 C -3,9 C 10,4 km/h (2 Bft)
20.02.2005 11:00 0,2 C 76 % 1008 hPa 0,0 l/m S -3,5 C -3,3 C 10,6 km/h (2 Bft)
20.02.2005 12:00 0,8 C 70 % 1008 hPa 0,0 l/m S -4,0 C 0,5 C 3,7 km/h (1 Bft)
20.02.2005 13:00 1,3 C 62 % 1007 hPa 0,0 l/m W -5,0 C 0,8 C 3,3 km/h (1 Bft)
20.02.2005 14:00 1,4 C 61 % 1007 hPa 0,0 l/m NW -5,3 C -0,3 C 8,3 km/h (2 Bft)
20.02.2005 15:00 1,0 C 62 % 1007 hPa 0,0 l/m N-NW -5,3 C 0,8 C 1,5 km/h (1 Bft)
20.02.2005 16:00 0,3 C 65 % 1007 hPa 0,0 l/m S -5,5 C 0,3 C 1,2 km/h (1 Bft)
20.02.2005 17:00 -1,0 C 74 % 1007 hPa 0,0 l/m N -5,0 C -1,0 C 0,0 km/h (0 Bft)
20.02.2005 18:00 -2,2 C 78 % 1007 hPa 0,0 l/m N -5,6 C -2,2 C 0,0 km/h (0 Bft)
20.02.2005 19:00 -3,5 C 80 % 1007 hPa 0,0 l/m N -6,5 C -3,5 C 0,0 km/h (0 Bft)
20.02.2005 20:00 -4,8 C 82 % 1007 hPa 0,0 l/m N -7,4 C -4,8 C 0,0 km/h (0 Bft)
20.02.2005 21:00 -5,2 C 85 % 1007 hPa 0,0 l/m NW -7,4 C -5,2 C 0,4 km/h (0 Bft)
20.02.2005 22:00 -4,8 C 91 % 1007 hPa 0,0 l/m N -6,0 C -4,8 C 0,0 km/h (0 Bft)
20.02.2005 23:00 -5,1 C 92 % 1007 hPa 0,0 l/m N -6,2 C -5,1 C 0,0 km/h (0 Bft)
Min-Datum _ 20.02.05 20.02.05 14.02.05 - - 20.02.05 19.02.05 14.02.05
_ Min-Zeit 21:09 14:23 01:00 - - 21:09 06:21 00:44
Minimum _ -5,3 C 59 % 1001 hPa - - -7,7 C -15,2 C 0,0 km/h (0 Bft)
Max-Datum _ 14.02.05 20.02.05 17.02.05 14.02.05 - 14.02.05 14.02.05 14.02.05
_ Max-Zeit 15:10 08:52 18:43 12:16 - 16:31 13:39 11:11
Maximum _ 2,0 C 98 % 1022 hPa 2,0 l/m - -1,6 C 1,9 C 34,8 km/h
W-SW (5 Bft)
Durchschnitt _ -2,4 C 85 % 1012 hPa #3,0 l/m N -4,6 C -5,1 C 8,4 km/h (2 Bft)

Durchschnitt Minimum Temp.-2,7 C
Durchschnitt Maximum Temp.-2,1 C